Olympic National Park, WA

04:45 AM PDT am 22. August 2014 (GMT -0700)
Whidbey Island Naval Air Station | Change Station
CLOSE
Current Station
Flughafen
Location: Whidbey Island,
Höhe: 46 ft
Wetterstationen in der Umgebung

Höhe 46 ft 48.35 °N, 122.66 °W | Updated 49 minutes ago

Mostly Cloudy
Wolkig
55 °F
gefühlte 55 °F
N
5
Wind Wechselnd Wind aus Süd

Heute
Max. -- | schwach -- °F
--% Regenrisiko
Gestern
Max. -- | schwach -- °F
Precip. -- inch
6:18 AM 8:14 PM
Letztes Viertel, 9% visible
Druck 30.03 inch
Sichtweite 1.0 Meilen
Wolken Wolkig 300 ft
Wolkig 600 ft
Taupunkt 51 °F
Feuchtigkeit 86%
Regen 0.00 inch
Schneehöhe Nicht verfügbar..
UV 0 von 12
Pollen 2.80 von 12
PM2.5 Gut
Flu Activity Nicht verfügbar..
METAR KNUW 221056Z 19004KT 1SM BR BKN003 BKN006 13/11 A3002 RMK AO2 SLP169 T01280106 $

More Conditions Fewer Conditions

Druck 30.03 inch
Sichtweite 1.0 Meilen
Wolken Wolkig 300 ft
Wolkig 600 ft
Taupunkt 51 °F
Feuchtigkeit 86%
Regen 0.00 inch
Schneehöhe Nicht verfügbar..
UV 0 von 12
Pollen 2.80 von 12
PM2.5 Gut
Flu Activity Nicht verfügbar..
METAR KNUW 221056Z 19004KT 1SM BR BKN003 BKN006 13/11 A3002 RMK AO2 SLP169 T01280106 $

More Conditions Fewer Conditions

10-Day Weather Forecast

Almanac

Astronomie

Aug. 22, 2014 Aufgang Untergang
Genaue Zeit 06:18 PDT 20:14 PDT
Bürgerliche Dämmerung 05:45 PDT 20:47 PDT
Nautische Dämmerung 05:03 PDT 21:28 PDT
Astronomische Dämmerung 04:18 PDT 22:13 PDT
Mond 03:40 PDT 18:29 PDT
Länge des sichtbaren Lichts 15h 02m
Tageslänge
13h 55m
Tomorrow will be 3m 15s shorter.
Letztes Viertel, 9% of the Moon is Illuminated
Heute
Letztes Viertel
Aug 25
Neu
Sept 2
Erstes Viertel
Sept 8
Vollmond
Sept 15
Letztes Viertel

Heutige Rekorde

State Highs State Lows

Community

WunderPhotos

Upload Photos

1,746,151 Fotos hochgeladen!

WunderBlogs® & News

By Dr. Jeff Masters
Director of Meteorology, Weather Underground
By Kari Strenfel
Meteorologist, Weather Underground
By Christopher C. Burt
Weather Historian, Weather Underground
August 22, 2014
August 22, 2014
August 22, 2014

Nearby

Luftqualität

  Luftqualität LQ Index Schadstoff
Gestern Gut
PM2.5
Aktuell Gut
PM2.5

Schneehöhe

Station Depth Höhe
Dungeness 0 in 4100 ft
Mount Crag 0 in 4050 ft
Alpine Meadows 0 in 3500 ft
Mf Nooksack 0 in 4980 ft
Burnt Mountain 0 in 4200 ft

Erdbebenaktivität

Stadt Distance Mag. Time & Date
No recent earthquake activity has been reported nearby.
Minimum magnitude displayed is 2.5.

küstennahe Wassertemperaturen

Ort Temperatur
Port Angeles, WA 54.0 °F
Friday Harbor, WA 54.0 °F
Port Townsend, WA 53.1 °F
La Push, WA 55.9 °F

Wetterstationen in der Umgebung